logo meteosicilia

Diretta Meteo Satenas, Sveziadomenica 21 luglio ore 00:20

Mappa
Sereno 17 °C Sereno 24 Ore: T.min 11 T.max 24
Ponente Nord Km/h 3.7 Punto di rugiada: 15 °C Umidità: 88% Visibilità: 10 Km
Il sole sorge alle: 04:36 Il sole tramonta alle: 21:55
21 Luglio 2024 00:20 tempo osservato: Sereno Sereno 17 88 1012 vento: Nord N 3.7
20 Luglio 2024 23:50 tempo osservato: Sereno Sereno 17 82 1012 vento: Nord N 1.8
20 Luglio 2024 23:20 tempo osservato: Sereno Sereno 18 82 1012 vento: Nord N 1.8
20 Luglio 2024 22:50 tempo osservato: Sereno Sereno 17 88 1012 vento: Nord N 5.5
20 Luglio 2024 22:20 tempo osservato: Sereno Sereno 19 72 1012 vento: Nord E 7.4
20 Luglio 2024 21:50 tempo osservato: Sereno Sereno 20 72 1012 vento: Nord E/NE 9.3
20 Luglio 2024 21:20 tempo osservato: Sereno Sereno 21 68 1012 vento: Nord N 5.5
20 Luglio 2024 20:50 tempo osservato: Sereno Sereno 21 73 1012 vento: Nord N 5.5
20 Luglio 2024 20:20 tempo osservato: Sereno Sereno 23 60 1012 vento: Nord N 3.7
20 Luglio 2024 19:50 tempo osservato: Sereno Sereno 24 60 1012 vento: Nord N 5.5
20 Luglio 2024 19:20 tempo osservato: Poco Nuvoloso Poco Nuvoloso 24 57 1012 vento: Nord N 5.5
20 Luglio 2024 18:50 tempo osservato: Sereno Sereno 24 53 1012 vento: Nord N 5.5
20 Luglio 2024 18:20 tempo osservato: Sereno Sereno 24 57 1013 vento: Nord N 7.4
20 Luglio 2024 17:50 tempo osservato: Sereno Sereno 24 53 1013 vento: Nord N 7.4
20 Luglio 2024 17:20 tempo osservato: Sereno Sereno 24 57 1013 vento: Nord N 7.4
20 Luglio 2024 16:50 tempo osservato: Sereno Sereno 24 53 1013 vento: Nord N 9.3
20 Luglio 2024 16:20 tempo osservato: Sereno Sereno 24 53 1013 vento: Nord N 9.3
20 Luglio 2024 15:50 tempo osservato: Poco Nuvoloso Poco Nuvoloso 23 56 1013 vento: Nord N 11.1
20 Luglio 2024 15:20 tempo osservato: Sereno Sereno 24 50 1014 vento: Nord N/NO 7.4
20 Luglio 2024 14:50 tempo osservato: Nuvoloso Nuvoloso 24 53 1014 vento: Nord N/NO 7.4
20 Luglio 2024 14:20 tempo osservato: Poco Nuvoloso Poco Nuvoloso 24 50 1014 vento: Nord N 5.5
20 Luglio 2024 13:50 tempo osservato: Nuvoloso Nuvoloso 23 53 1014 vento: Nord O 7.4
20 Luglio 2024 13:20 tempo osservato: Poco Nuvoloso Poco Nuvoloso 23 53 1014 vento: Nord N 5.5
20 Luglio 2024 12:50 tempo osservato: Poco Nuvoloso Poco Nuvoloso 23 53 1015 vento: Nord O 7.4
20 Luglio 2024 12:20 tempo osservato: Poco Nuvoloso Poco Nuvoloso 23 49 1015 vento: Nord N 5.5
20 Luglio 2024 11:50 tempo osservato: Poco Nuvoloso Poco Nuvoloso 22 53 1015 vento: Nord N 5.5
20 Luglio 2024 11:20 tempo osservato: Sereno Sereno 21 64 1015 vento: Nord O 7.4
20 Luglio 2024 10:50 tempo osservato: Sereno Sereno 20 68 1015 vento: Nord O 7.4
20 Luglio 2024 10:20 tempo osservato: Sereno Sereno 20 68 1015 vento: Nord O/NO 7.4
20 Luglio 2024 09:50 tempo osservato: Sereno Sereno 19 72 1015 vento: Nord O 7.4
20 Luglio 2024 09:20 tempo osservato: Sereno Sereno 19 72 1015 vento: Nord N 5.5
20 Luglio 2024 08:50 tempo osservato: Sereno Sereno 18 77 1015 vento: Nord N 5.5
20 Luglio 2024 08:20 tempo osservato: Sereno Sereno 17 82 1016 vento: Nord N 5.5
20 Luglio 2024 07:50 tempo osservato: Sereno Sereno 16 87 1016 vento: Nord N 5.5
20 Luglio 2024 07:20 tempo osservato: Sereno Sereno 15 93 1016 vento: Nord S/SO 7.4
20 Luglio 2024 06:50 tempo osservato: Sereno Sereno 14 93 1016 vento: Nord S 7.4
20 Luglio 2024 06:20 tempo osservato: Sereno Sereno 13 93 1016 vento: Nord S 7.4
20 Luglio 2024 05:50 tempo osservato: Sereno Sereno 12 100 1016 vento: Nord S 11.1
20 Luglio 2024 05:20 tempo osservato: Sereno Sereno 12 93 1016 vento: Nord S/SO 11.1
20 Luglio 2024 04:50 tempo osservato: Sereno Sereno 12 93 1016 vento: Nord S/SO 11.1
20 Luglio 2024 04:20 tempo osservato: Sereno Sereno 11 100 1017 vento: Nord S 11.1
20 Luglio 2024 03:50 tempo osservato: Sereno Sereno 12 93 1017 vento: Nord S 7.4
20 Luglio 2024 03:20 tempo osservato: Sereno Sereno 12 93 1017 vento: Nord N 5.5
20 Luglio 2024 02:50 tempo osservato: Sereno Sereno 12 93 1017 vento: Nord S 9.3
20 Luglio 2024 02:20 tempo osservato: Sereno Sereno 12 93 1017 vento: Nord S 9.3
20 Luglio 2024 01:50 tempo osservato: Sereno Sereno 12 93 1017 vento: Nord S 9.3
20 Luglio 2024 01:20 tempo osservato: Sereno Sereno 13 87 1017 vento: Nord S 7.4
20 Luglio 2024 00:50 tempo osservato: Sereno Sereno 13 93 1017 vento: Nord S/SO 9.3